createdAt,value
2019-05-22T00:01:41.086Z,101560.66
2019-05-22T00:04:18.385Z,101561.88
2019-05-22T00:06:50.562Z,101560.47
2019-05-22T00:09:26.053Z,101559.37
2019-05-22T00:11:56.523Z,101562.92
2019-05-22T00:14:28.412Z,101564.69
2019-05-22T00:16:59.440Z,101562.84
2019-05-22T00:19:30.671Z,101570.16
2019-05-22T00:22:11.324Z,101559.76
2019-05-22T00:24:44.223Z,101561.73
2019-05-22T00:27:15.139Z,101566.81
2019-05-22T00:29:48.228Z,101565.67
2019-05-22T00:32:17.895Z,101566.76
2019-05-22T00:34:48.512Z,101570.78
2019-05-22T00:37:19.547Z,101573.22
2019-05-22T00:39:49.259Z,101576.30
2019-05-22T00:42:20.705Z,101571.13
2019-05-22T00:44:51.711Z,101573.19
2019-05-22T00:47:22.735Z,101570.27
2019-05-22T00:49:55.285Z,101581.27
2019-05-22T00:52:43.495Z,101591.75
2019-05-22T00:55:32.111Z,101584.07
2019-05-22T00:58:26.920Z,101586.61
2019-05-22T01:01:01.904Z,101590.52
2019-05-22T01:03:33.686Z,101586.44
2019-05-22T01:06:04.944Z,101590.58
2019-05-22T01:08:37.584Z,101598.56
2019-05-22T01:11:07.461Z,101600.28
2019-05-22T01:13:37.942Z,101603.41
2019-05-22T01:16:09.098Z,101606.91
2019-05-22T01:18:38.998Z,101608.30
2019-05-22T01:21:10.416Z,101602.72
2019-05-22T01:23:40.259Z,101599.41
2019-05-22T01:26:13.605Z,101603.53
2019-05-22T01:28:46.199Z,101600.26
2019-05-22T01:31:33.294Z,101610.52
2019-05-22T01:34:08.185Z,101602.76
2019-05-22T01:36:44.531Z,101615.54
2019-05-22T01:39:39.483Z,101612.77
2019-05-22T01:42:12.699Z,101612.03
2019-05-22T01:44:57.968Z,101621.27
2019-05-22T01:47:20.879Z,101613.95
2019-05-22T01:49:54.099Z,101627.72
2019-05-22T01:52:23.767Z,101617.41
2019-05-22T01:54:55.040Z,101617.41
2019-05-22T01:57:26.495Z,101618.28
2019-05-22T01:59:57.046Z,101615.05
2019-05-22T02:02:26.870Z,101615.88
2019-05-22T02:04:58.254Z,101607.87
2019-05-22T02:07:29.016Z,101618.42
2019-05-22T02:09:59.483Z,101622.77
2019-05-22T02:12:50.955Z,101618.34
2019-05-22T02:15:21.956Z,101628.05
2019-05-22T02:17:52.704Z,101619.06
2019-05-22T02:20:22.548Z,101620.64
2019-05-22T02:22:52.265Z,101629.40
2019-05-22T02:25:21.542Z,101624.86
2019-05-22T02:27:51.678Z,101622.64
2019-05-22T02:30:23.199Z,101623.32
2019-05-22T02:32:53.139Z,101625.41
2019-05-22T02:35:23.788Z,101625.95
2019-05-22T02:37:53.272Z,101636.73
2019-05-22T02:40:27.250Z,101630.58
2019-05-22T02:42:58.433Z,101638.21
2019-05-22T02:45:29.068Z,101638.44
2019-05-22T02:48:00.634Z,101635.62
2019-05-22T02:50:30.377Z,101631.16
2019-05-22T02:53:01.613Z,101641.82
2019-05-22T02:55:30.964Z,101644.98
2019-05-22T02:58:00.511Z,101652.09
2019-05-22T03:00:34.389Z,101654.05
2019-05-22T03:03:06.165Z,101648.69
2019-05-22T03:05:35.636Z,101649.03
2019-05-22T03:08:05.205Z,101651.92
2019-05-22T03:10:34.787Z,101653.67
2019-05-22T03:13:04.121Z,101661.06
2019-05-22T03:15:33.863Z,101662.12
2019-05-22T03:18:05.299Z,101660.73
2019-05-22T03:20:36.397Z,101661.64
2019-05-22T03:23:14.457Z,101662.36
2019-05-22T03:25:44.790Z,101661.14
2019-05-22T03:28:14.966Z,101664.88
2019-05-22T03:30:46.572Z,101665.75
2019-05-22T03:33:16.263Z,101668.64
2019-05-22T03:35:48.537Z,101668.31
2019-05-22T03:38:20.342Z,101676.67
2019-05-22T03:40:53.155Z,101673.71
2019-05-22T03:43:25.249Z,101670.84
2019-05-22T03:45:57.199Z,101671.22
2019-05-22T03:48:28.333Z,101679.82
2019-05-22T03:51:07.789Z,101695.18
2019-05-22T03:53:37.361Z,101680.97
2019-05-22T03:56:06.645Z,101680.24
2019-05-22T03:58:36.166Z,101680.14
2019-05-22T04:01:07.205Z,101678.06
2019-05-22T04:03:36.599Z,101683.05
2019-05-22T04:06:06.980Z,101694.87
2019-05-22T04:08:37.330Z,101684.75
2019-05-22T04:11:08.398Z,101691.13
2019-05-22T04:13:38.666Z,101692.77
2019-05-22T04:16:10.741Z,101690.41
2019-05-22T04:18:40.756Z,101697.48
2019-05-22T04:21:10.122Z,101701.77
2019-05-22T04:23:39.896Z,101702.53
2019-05-22T04:26:11.973Z,101697.34
2019-05-22T04:28:49.972Z,101711.56
2019-05-22T04:31:23.211Z,101706.33
2019-05-22T04:33:53.092Z,101710.40
2019-05-22T04:36:24.204Z,101709.06
2019-05-22T04:38:53.596Z,101709.55
2019-05-22T04:41:22.911Z,101713.09
2019-05-22T04:43:52.360Z,101719.34
2019-05-22T04:46:23.356Z,101718.06
2019-05-22T04:48:54.007Z,101718.02
2019-05-22T04:51:31.157Z,101726.84
2019-05-22T04:54:00.641Z,101725.63
2019-05-22T04:56:30.604Z,101723.90
2019-05-22T04:59:01.836Z,101722.61
2019-05-22T05:01:31.226Z,101728.13
2019-05-22T05:04:01.525Z,101731.61
2019-05-22T05:06:33.504Z,101736.91
2019-05-22T05:09:03.937Z,101734.33
2019-05-22T05:11:34.043Z,101742.25
2019-05-22T05:14:03.400Z,101750.75
2019-05-22T05:16:32.835Z,101750.78
2019-05-22T05:19:02.221Z,101746.85
2019-05-22T05:21:31.529Z,101743.70
2019-05-22T05:24:00.819Z,101747.98
2019-05-22T05:26:31.505Z,101748.27
2019-05-22T05:29:01.319Z,101740.36
2019-05-22T05:31:31.136Z,101751.42
2019-05-22T05:34:32.322Z,101742.20
2019-05-22T05:37:05.164Z,101751.57
2019-05-22T05:40:39.311Z,101755.96
2019-05-22T05:43:10.637Z,101751.64
2019-05-22T05:45:41.972Z,101754.30
2019-05-22T05:48:14.104Z,101751.89
2019-05-22T05:51:11.148Z,101760.95
2019-05-22T05:54:01.028Z,101753.14
2019-05-22T05:56:33.416Z,101759.70
2019-05-22T05:59:04.773Z,101763.80
2019-05-22T06:01:38.951Z,101767.13
2019-05-22T06:04:11.064Z,101765.84
2019-05-22T06:07:21.773Z,101762.77
2019-05-22T06:10:42.821Z,101775.95
2019-05-22T06:13:12.748Z,101770.84
2019-05-22T06:16:29.331Z,101770.67
2019-05-22T06:18:59.327Z,101780.64
2019-05-22T06:21:29.296Z,101784.34
2019-05-22T06:24:29.900Z,101782.45
2019-05-22T06:27:18.928Z,101784.30
2019-05-22T06:29:59.345Z,101792.09
2019-05-22T06:33:21.631Z,101791.25
2019-05-22T06:35:51.319Z,101794.35
2019-05-22T06:38:52.902Z,101793.59
2019-05-22T06:41:29.118Z,101793.37
2019-05-22T06:44:36.134Z,101807.03
2019-05-22T06:47:09.063Z,101801.65
2019-05-22T06:49:56.749Z,101801.95
2019-05-22T06:52:26.525Z,101801.50
2019-05-22T06:54:56.544Z,101806.78
2019-05-22T06:57:32.005Z,101805.32
2019-05-22T07:00:21.640Z,101798.15
2019-05-22T07:02:51.014Z,101808.79
2019-05-22T07:05:20.828Z,101801.80
2019-05-22T07:07:50.495Z,101806.54
2019-05-22T07:10:20.692Z,101813.58
2019-05-22T07:12:51.008Z,101817.08
2019-05-22T07:15:51.155Z,101815.03
2019-05-22T07:18:22.553Z,101809.13
2019-05-22T07:20:52.454Z,101811.69
2019-05-22T07:23:30.347Z,101813.01
2019-05-22T07:26:00.903Z,101812.86
2019-05-22T07:28:31.952Z,101805.11
2019-05-22T07:31:02.900Z,101814.97
2019-05-22T07:33:32.897Z,101816.61
2019-05-22T07:36:09.852Z,101812.87
2019-05-22T07:38:37.754Z,101817.22
2019-05-22T07:41:07.732Z,101813.02
2019-05-22T07:43:41.209Z,101823.03
2019-05-22T07:46:08.722Z,101814.62
2019-05-22T07:48:38.488Z,101823.30
2019-05-22T07:51:08.767Z,101823.44
2019-05-22T07:53:38.080Z,101829.83
2019-05-22T07:56:11.453Z,101836.71
2019-05-22T07:58:42.013Z,101830.74
2019-05-22T08:01:12.213Z,101831.78
2019-05-22T08:03:43.636Z,101830.05
2019-05-22T08:06:13.204Z,101829.92
2019-05-22T08:08:44.498Z,101833.78
2019-05-22T08:11:14.527Z,101826.72
2019-05-22T08:13:45.291Z,101827.55
2019-05-22T08:16:16.862Z,101834.34
2019-05-22T08:18:46.573Z,101832.60
2019-05-22T08:21:15.968Z,101829.33
2019-05-22T08:23:45.546Z,101828.85
2019-05-22T08:26:16.855Z,101828.35
2019-05-22T08:28:46.328Z,101824.88
2019-05-22T08:31:17.243Z,101835.75
2019-05-22T08:33:46.735Z,101828.19
2019-05-22T08:36:16.283Z,101826.82
2019-05-22T08:38:45.766Z,101831.41
2019-05-22T08:41:18.943Z,101825.66
2019-05-22T08:44:13.959Z,101826.58
2019-05-22T08:46:20.444Z,101825.75
2019-05-22T08:48:50.093Z,101836.87
2019-05-22T08:51:19.923Z,101826.83
2019-05-22T08:53:49.685Z,101837.11
2019-05-22T08:56:19.621Z,101834.28
2019-05-22T08:58:48.955Z,101842.82
2019-05-22T09:01:20.017Z,101845.47
2019-05-22T09:03:49.379Z,101836.20
2019-05-22T09:06:18.946Z,101842.47
2019-05-22T09:08:51.504Z,101838.53
2019-05-22T09:11:25.112Z,101833.03
2019-05-22T09:13:52.052Z,101840.88
2019-05-22T09:16:21.628Z,101838.58
2019-05-22T09:18:52.458Z,101838.44
2019-05-22T09:21:23.517Z,101837.50
2019-05-22T09:23:55.829Z,101846.82
2019-05-22T09:26:26.080Z,101840.22
2019-05-22T09:28:55.616Z,101846.67
2019-05-22T09:31:26.199Z,101836.94
2019-05-22T09:34:00.219Z,101832.12
2019-05-22T09:36:34.435Z,101834.39
2019-05-22T09:39:05.648Z,101840.09
2019-05-22T09:41:35.097Z,101831.62
2019-05-22T09:44:04.745Z,101830.70
2019-05-22T09:46:34.237Z,101839.03
2019-05-22T09:49:04.981Z,101835.01
2019-05-22T09:51:34.361Z,101845.84
2019-05-22T09:54:04.765Z,101844.09
2019-05-22T09:56:34.382Z,101841.65
2019-05-22T09:59:05.104Z,101841.02
2019-05-22T10:01:34.765Z,101845.39
2019-05-22T10:04:04.694Z,101842.52
2019-05-22T10:06:34.170Z,101840.67
2019-05-22T10:09:04.308Z,101838.80
2019-05-22T10:11:35.660Z,101848.52
2019-05-22T10:14:06.444Z,101840.73
2019-05-22T10:16:37.402Z,101839.38
2019-05-22T10:19:06.978Z,101840.98
2019-05-22T10:21:37.439Z,101843.64
2019-05-22T10:24:06.910Z,101845.41
2019-05-22T10:26:37.301Z,101840.36
2019-05-22T10:29:08.253Z,101844.24
2019-05-22T10:31:37.740Z,101843.70
2019-05-22T10:34:08.363Z,101841.41
2019-05-22T10:36:43.093Z,101844.05
2019-05-22T10:39:10.664Z,101839.66
2019-05-22T10:41:39.972Z,101844.02
2019-05-22T10:44:09.292Z,101846.36
2019-05-22T10:46:38.718Z,101840.72
2019-05-22T10:49:08.100Z,101832.34
2019-05-22T10:51:37.698Z,101846.75
2019-05-22T10:54:07.078Z,101838.91
2019-05-22T10:56:36.377Z,101838.88
2019-05-22T10:59:06.991Z,101835.38
2019-05-22T11:01:37.692Z,101829.26
2019-05-22T11:04:08.123Z,101830.98
2019-05-22T11:06:37.813Z,101839.44
2019-05-22T11:09:09.765Z,101835.31
2019-05-22T11:11:40.376Z,101833.44
2019-05-22T11:14:11.296Z,101840.24
2019-05-22T11:16:40.637Z,101830.48
2019-05-22T11:19:10.370Z,101837.80
2019-05-22T11:21:39.643Z,101830.63
2019-05-22T11:24:09.793Z,101838.19
2019-05-22T11:26:39.132Z,101836.84
2019-05-22T11:29:09.350Z,101833.66
2019-05-22T11:31:39.400Z,101830.28
2019-05-22T11:34:08.901Z,101835.70
2019-05-22T11:36:39.085Z,101827.69
2019-05-22T11:39:14.003Z,101827.11
2019-05-22T11:41:43.996Z,101828.41
2019-05-22T11:44:14.333Z,101818.15
2019-05-22T11:46:45.072Z,101830.42
2019-05-22T11:49:14.372Z,101822.41
2019-05-22T11:51:44.146Z,101822.84
2019-05-22T11:54:13.554Z,101829.44
2019-05-22T11:56:42.964Z,101831.23
2019-05-22T11:59:13.808Z,101811.88
2019-05-22T12:01:43.410Z,101817.88
2019-05-22T12:04:13.591Z,101804.95
2019-05-22T12:06:43.887Z,101810.09
2019-05-22T12:09:16.697Z,101801.37
2019-05-22T12:11:46.707Z,101813.46
2019-05-22T12:14:18.497Z,101808.41
2019-05-22T12:16:53.009Z,101807.75
2019-05-22T12:19:22.601Z,101808.46
2019-05-22T12:21:52.009Z,101807.07
2019-05-22T12:24:27.906Z,101807.95
2019-05-22T12:26:52.905Z,101794.66
2019-05-22T12:29:22.863Z,101809.55
2019-05-22T12:31:52.414Z,101800.97
2019-05-22T12:34:21.784Z,101800.08
2019-05-22T12:36:51.803Z,101806.26
2019-05-22T12:39:24.149Z,101807.83
2019-05-22T12:41:55.322Z,101810.75
2019-05-22T12:44:25.440Z,101798.21
2019-05-22T12:46:54.838Z,101805.05
2019-05-22T12:49:26.061Z,101798.73
2019-05-22T12:51:55.489Z,101800.20
2019-05-22T12:54:24.800Z,101802.23
2019-05-22T12:56:55.265Z,101800.47
2019-05-22T12:59:27.359Z,101793.81
2019-05-22T13:01:58.189Z,101798.11
2019-05-22T13:04:29.273Z,101790.19
2019-05-22T13:07:00.706Z,101791.70
2019-05-22T13:09:31.133Z,101798.70
2019-05-22T13:12:00.630Z,101789.96
2019-05-22T13:14:30.440Z,101783.69
2019-05-22T13:17:01.758Z,101788.53
2019-05-22T13:19:33.712Z,101793.98
2019-05-22T13:22:04.548Z,101784.50
2019-05-22T13:24:35.363Z,101774.57
2019-05-22T13:27:07.629Z,101778.35
2019-05-22T13:29:37.156Z,101768.36
2019-05-22T13:32:08.771Z,101770.55
2019-05-22T13:34:39.952Z,101771.29
2019-05-22T13:37:10.218Z,101770.02
2019-05-22T13:39:39.971Z,101767.67
2019-05-22T13:42:13.321Z,101768.64
2019-05-22T13:44:42.771Z,101766.69
2019-05-22T13:47:12.729Z,101763.22
2019-05-22T13:49:42.940Z,101765.45
2019-05-22T13:52:14.415Z,101764.19
2019-05-22T13:54:47.724Z,101781.45
2019-05-22T13:57:17.536Z,101769.45
2019-05-22T13:59:47.222Z,101772.08
2019-05-22T14:02:16.618Z,101774.98
2019-05-22T14:04:46.050Z,101766.75
2019-05-22T14:07:16.252Z,101770.36
2019-05-22T14:09:46.032Z,101770.11
2019-05-22T14:12:15.389Z,101769.58
2019-05-22T14:14:45.448Z,101762.84
2019-05-22T14:17:14.763Z,101764.76
2019-05-22T14:19:44.106Z,101757.20
2019-05-22T14:22:13.437Z,101758.48
2019-05-22T14:24:42.773Z,101758.09
2019-05-22T14:27:12.173Z,101758.70
2019-05-22T14:29:41.728Z,101756.69
2019-05-22T14:32:11.808Z,101756.76
2019-05-22T14:34:41.573Z,101765.95
2019-05-22T14:37:12.923Z,101757.68
2019-05-22T14:39:42.773Z,101768.09
2019-05-22T14:42:13.748Z,101762.50
2019-05-22T14:44:43.140Z,101760.16
2019-05-22T14:47:15.937Z,101758.34
2019-05-22T14:49:43.672Z,101757.72
2019-05-22T14:52:14.136Z,101757.01
2019-05-22T14:54:43.465Z,101754.52
2019-05-22T14:57:12.893Z,101755.66
2019-05-22T14:59:42.148Z,101757.11
2019-05-22T15:02:12.049Z,101753.77
2019-05-22T15:04:42.139Z,101760.50
2019-05-22T15:07:11.555Z,101754.86
2019-05-22T15:09:40.936Z,101745.03
2019-05-22T15:12:10.751Z,101754.36
2019-05-22T15:14:40.037Z,101755.16
2019-05-22T15:17:09.636Z,101750.36
2019-05-22T15:19:38.978Z,101741.87
2019-05-22T15:22:08.986Z,101753.88
2019-05-22T15:24:38.408Z,101739.22
2019-05-22T15:27:09.432Z,101738.02
2019-05-22T15:29:38.851Z,101735.92
2019-05-22T15:32:09.286Z,101739.50
2019-05-22T15:34:39.919Z,101731.72
2019-05-22T15:37:10.996Z,101729.75
2019-05-22T15:39:40.803Z,101732.17
2019-05-22T15:42:13.096Z,101731.87
2019-05-22T15:44:42.889Z,101732.86
2019-05-22T15:47:12.281Z,101729.20
2019-05-22T15:49:44.890Z,101725.49
2019-05-22T15:52:15.230Z,101721.20
2019-05-22T15:54:46.317Z,101730.34
2019-05-22T15:57:17.201Z,101726.45
2019-05-22T15:59:47.661Z,101721.67
2019-05-22T16:02:21.708Z,101722.53
2019-05-22T16:04:48.694Z,101725.23
2019-05-22T16:07:18.797Z,101708.29
2019-05-22T16:09:50.431Z,101716.30
2019-05-22T16:12:19.754Z,101715.88
2019-05-22T16:14:51.427Z,101716.94
2019-05-22T16:17:22.294Z,101719.75
2019-05-22T16:19:53.018Z,101718.28
2019-05-22T16:22:22.452Z,101726.08
2019-05-22T16:24:53.374Z,101726.20
2019-05-22T16:27:23.744Z,101719.45
2019-05-22T16:29:55.172Z,101721.48
2019-05-22T16:32:26.268Z,101716.94
2019-05-22T16:34:56.064Z,101726.95
2019-05-22T16:37:25.537Z,101716.78
2019-05-22T16:39:54.895Z,101721.53
2019-05-22T16:42:24.198Z,101715.64
2019-05-22T16:44:53.628Z,101714.55
2019-05-22T16:47:22.921Z,101705.84
2019-05-22T16:49:53.898Z,101716.48
2019-05-22T16:52:26.985Z,101711.03
2019-05-22T16:54:59.781Z,101711.87
2019-05-22T16:57:31.517Z,101714.24
2019-05-22T17:00:01.469Z,101711.84
2019-05-22T17:02:32.638Z,101708.21
2019-05-22T17:05:02.528Z,101710.88
2019-05-22T17:07:32.695Z,101715.06
2019-05-22T17:10:03.587Z,101717.61
2019-05-22T17:12:33.231Z,101711.57
2019-05-22T17:15:02.716Z,101710.78
2019-05-22T17:17:32.267Z,101708.98
2019-05-22T17:20:01.755Z,101705.55
2019-05-22T17:22:31.134Z,101712.33
2019-05-22T17:25:00.452Z,101703.78
2019-05-22T17:27:30.610Z,101704.32
2019-05-22T17:30:00.614Z,101715.30
2019-05-22T17:32:29.974Z,101704.25
2019-05-22T17:35:00.463Z,101710.72
2019-05-22T17:37:31.103Z,101706.28
2019-05-22T17:40:04.245Z,101711.37
2019-05-22T17:42:35.009Z,101703.34
2019-05-22T17:45:04.800Z,101703.20
2019-05-22T17:47:34.408Z,101705.02
2019-05-22T17:50:04.353Z,101705.69
2019-05-22T17:52:33.968Z,101704.85
2019-05-22T17:55:05.617Z,101704.41
2019-05-22T17:57:35.057Z,101718.19
2019-05-22T18:00:07.258Z,101714.63
2019-05-22T18:02:37.071Z,101712.38
2019-05-22T18:05:07.880Z,101706.86
2019-05-22T18:07:38.707Z,101707.13
2019-05-22T18:10:09.330Z,101707.34
2019-05-22T18:12:38.942Z,101707.98
2019-05-22T18:15:10.138Z,101711.25
2019-05-22T18:17:39.911Z,101708.23
2019-05-22T18:20:11.379Z,101713.22
2019-05-22T18:22:41.225Z,101715.05
2019-05-22T18:25:11.263Z,101717.31
2019-05-22T18:27:40.611Z,101714.25
2019-05-22T18:30:11.143Z,101714.38
2019-05-22T18:32:42.582Z,101713.49
2019-05-22T18:35:13.536Z,101712.52
2019-05-22T18:37:42.924Z,101713.77
2019-05-22T18:40:13.124Z,101716.65
2019-05-22T18:42:42.661Z,101720.58
2019-05-22T18:45:34.439Z,101722.25
2019-05-22T18:48:04.529Z,101716.25
2019-05-22T18:50:34.716Z,101714.24
2019-05-22T18:53:06.853Z,101717.72
2019-05-22T18:55:36.178Z,101723.13
2019-05-22T18:58:06.130Z,101716.86
2019-05-22T19:00:35.878Z,101717.51
2019-05-22T19:03:05.744Z,101718.63
2019-05-22T19:05:35.612Z,101723.76
2019-05-22T19:08:04.966Z,101717.02
2019-05-22T19:10:34.420Z,101722.95
2019-05-22T19:13:04.353Z,101719.17
2019-05-22T19:15:33.809Z,101726.83
2019-05-22T19:18:03.787Z,101733.62
2019-05-22T19:20:33.163Z,101733.00
2019-05-22T19:23:02.714Z,101735.68
2019-05-22T19:25:32.270Z,101734.38
2019-05-22T19:28:01.719Z,101742.75
2019-05-22T19:30:31.304Z,101748.40
2019-05-22T19:33:00.666Z,101754.18
2019-05-22T19:35:30.039Z,101749.73
2019-05-22T19:38:00.910Z,101753.12
2019-05-22T19:40:30.922Z,101751.61
2019-05-22T19:43:00.548Z,101748.25
2019-05-22T19:45:31.068Z,101751.22
2019-05-22T19:48:01.880Z,101755.64
2019-05-22T19:50:31.280Z,101753.61
2019-05-22T19:53:17.469Z,101755.83
2019-05-22T19:55:35.434Z,101759.52
2019-05-22T19:58:05.666Z,101760.59
2019-05-22T20:00:35.919Z,101765.47
2019-05-22T20:03:05.975Z,101766.53
2019-05-22T20:05:36.615Z,101766.53
2019-05-22T20:08:06.082Z,101767.48
2019-05-22T20:10:35.773Z,101762.80
2019-05-22T20:13:08.161Z,101770.50
2019-05-22T20:15:38.725Z,101772.05
2019-05-22T20:18:08.563Z,101767.95
2019-05-22T20:20:38.567Z,101772.30
2019-05-22T20:23:09.406Z,101776.33
2019-05-22T20:25:39.161Z,101779.07
2019-05-22T20:28:10.176Z,101784.91
2019-05-22T20:30:51.187Z,101783.05
2019-05-22T20:33:20.934Z,101790.21
2019-05-22T20:35:50.387Z,101790.78
2019-05-22T20:38:19.784Z,101794.55
2019-05-22T20:40:49.349Z,101789.95
2019-05-22T20:43:20.366Z,101801.84
2019-05-22T20:45:50.776Z,101803.02
2019-05-22T20:48:28.194Z,101793.58
2019-05-22T20:50:59.717Z,101794.79
2019-05-22T20:53:31.024Z,101798.55
2019-05-22T20:56:01.037Z,101793.37
2019-05-22T20:58:32.448Z,101792.52
2019-05-22T21:01:03.431Z,101799.83
2019-05-22T21:03:33.387Z,101790.50
2019-05-22T21:06:07.805Z,101797.03
2019-05-22T21:08:38.129Z,101805.30
2019-05-22T21:11:09.655Z,101792.86
2019-05-22T21:13:39.870Z,101798.11
2019-05-22T21:16:09.489Z,101800.77
2019-05-22T21:18:42.643Z,101798.61
2019-05-22T21:21:13.786Z,101809.52
2019-05-22T21:23:44.143Z,101802.55
2019-05-22T21:26:15.146Z,101804.66
2019-05-22T21:28:45.678Z,101803.84
2019-05-22T21:31:17.052Z,101809.50
2019-05-22T21:33:46.839Z,101812.63
2019-05-22T21:36:18.931Z,101812.88
2019-05-22T21:38:48.325Z,101806.69
2019-05-22T21:41:21.935Z,101806.18
2019-05-22T21:43:52.461Z,101809.81
2019-05-22T21:46:22.356Z,101814.47
2019-05-22T21:48:56.418Z,101810.48
2019-05-22T21:51:26.343Z,101803.91
2019-05-22T21:53:56.489Z,101805.78
2019-05-22T21:56:26.066Z,101806.89
2019-05-22T21:58:55.872Z,101806.89
2019-05-22T22:01:39.089Z,101812.56
2019-05-22T22:04:20.298Z,101815.25
2019-05-22T22:06:51.237Z,101819.92
2019-05-22T22:09:21.781Z,101819.42
2019-05-22T22:11:52.813Z,101813.69
2019-05-22T22:14:24.086Z,101813.17
2019-05-22T22:16:53.509Z,101816.30
2019-05-22T22:19:23.864Z,101825.11
2019-05-22T22:21:53.139Z,101826.52
2019-05-22T22:24:23.072Z,101830.59
2019-05-22T22:26:53.133Z,101834.33
2019-05-22T22:29:23.195Z,101824.44
2019-05-22T22:31:54.174Z,101829.38
2019-05-22T22:34:30.625Z,101831.83
2019-05-22T22:37:00.690Z,101828.60
2019-05-22T22:39:38.327Z,101824.50
2019-05-22T22:42:10.892Z,101829.39
2019-05-22T22:44:41.051Z,101824.57
2019-05-22T22:47:15.949Z,101828.48
2019-05-22T22:49:45.926Z,101823.14
2019-05-22T22:52:16.176Z,101839.34
2019-05-22T22:54:46.102Z,101839.52
2019-05-22T22:57:15.841Z,101827.39
2019-05-22T22:59:45.779Z,101838.75
2019-05-22T23:02:18.238Z,101827.16
2019-05-22T23:04:48.736Z,101837.31
2019-05-22T23:07:19.632Z,101833.28
2019-05-22T23:09:49.369Z,101835.20
2019-05-22T23:12:19.628Z,101834.84
2019-05-22T23:14:56.748Z,101828.77
2019-05-22T23:17:26.143Z,101830.85
2019-05-22T23:19:54.898Z,101832.31
2019-05-22T23:22:28.628Z,101829.97
2019-05-22T23:24:59.566Z,101823.74
2019-05-22T23:27:31.428Z,101824.81
2019-05-22T23:30:01.100Z,101820.25
2019-05-22T23:32:30.992Z,101827.80
2019-05-22T23:35:01.017Z,101818.84
2019-05-22T23:37:30.462Z,101818.97
2019-05-22T23:40:00.064Z,101824.01
2019-05-22T23:42:35.030Z,101825.75
2019-05-22T23:45:07.546Z,101824.66
2019-05-22T23:47:45.277Z,101821.92
2019-05-22T23:50:15.465Z,101829.88
2019-05-22T23:52:44.860Z,101822.48
2019-05-22T23:55:14.437Z,101822.77
2019-05-22T23:57:43.791Z,101818.87
